METAR Data
IDs: Format: Raw Decoded Include TAF

Data at: 2135 UTC 18 Sep 2018

KLAN 182053Z 28009KT 10SM CLR 27/20 A2992 RMK AO2 SLP129 T02670200 56005
KLAN 181953Z 31007KT 10SM BKN075 27/19 A2993 RMK AO2 SLP130 T02670194
KLAN 181853Z 34005KT 10SM FEW060 27/19 A2992 RMK AO2 LTG DSNT W SLP128 T02720189
KLAN 181753Z 28006KT 10SM CLR 28/19 A2994 RMK AO2 SLP132 6//// T02830189 55006
KLAN 181653Z 25004KT 10SM CLR 27/19 A2994 RMK AO2 SLP132 T02720189
KLAN 181553Z AUTO 00000KT 10SM BKN090 A2995 RMK AO2 SLPNO PNO $
KLAN 181453Z AUTO 14003KT 10SM CLR A2995 RMK AO2 SLPNO 6//// 53000 PNO $
KLAN 181353Z 00000KT 10SM CLR 22/19 A2995 RMK AO2 SLP136 T02170189
KLAN 181253Z 09005KT 10SM CLR 19/18 A2995 RMK AO2 SLP136 T01940183
KLAN 181153Z 00000KT 8SM R28L/5500VP6000FT CLR 18/17 A2995 RMK AO2 SLP138 7//// T01780172 10194 20167 53008
KLAN 181053Z 15004KT 8SM CLR 18/18 A2993 RMK AO2 SLP130 T01780178
KLAN 180953Z 00000KT 7SM CLR 18/17 A2994 RMK AO2 SLP131 T01780172
KLAN 180853Z 00000KT 4SM R28L/1600VP6000FT BR CLR 17/17 A2993 RMK AO2 SLP129 T01670167 53003
KLAN 180753Z 00000KT 10SM CLR 18/18 A2992 RMK AO2 SLP125 T01830178
KLAN 180653Z 00000KT 10SM CLR 18/18 A2993 RMK AO2 SLPNO T01830178
KLAN 180553Z 00000KT 10SM CLR 19/18 A2992 RMK AO2 SLP126 T01890178 10261 20183 51001
KLAN 180453Z 00000KT 10SM CLR 19/18 A2992 RMK AO2 SLP126 T01890178 403170172
KLAN 180353Z 00000KT 10SM CLR 20/19 A2993 RMK AO2 SLP129 T02000189
KLAN 180253Z 29003KT 10SM CLR 22/19 A2992 RMK AO2 SLP125 T02220189 53007
KLAN 180153Z 29004KT 10SM CLR 24/19 A2991 RMK AO2 SLP122 T02390189
KLAN 180053Z 28006KT 10SM CLR 25/18 A2990 RMK AO2 SLP120 T02500183
KLAN 172353Z 29004KT 10SM CLR 26/18 A2990 RMK AO2 SLP119 6//// T02610183 10317 20261 53004
KLAN 172253Z 28004KT 10SM CLR 29/18 A2988 RMK AO2 SLP115 T02890183
KLAN 172153Z 31006KT 10SM FEW055 31/17 A2989 RMK AO2 SLP114 T03060172
KLAN 172053Z 00000KT 10SM SCT075 29/18 A2988 RMK AO2 SLP113 6//// T02940183 56018
KLAN 171953Z 35004KT 10SM FEW065 31/18 A2989 RMK AO2 SLP116 T03060183
KLAN 171853Z AUTO 36006KT SCT050 A2991 RMK AO2 SLPNO PNO $
KLAN 171753Z AUTO 00000KT SCT050 31/18 A2994 RMK AO2 SLP132 T03110183 10311 20172 58015 PWINO $
KLAN 171653Z AUTO 10SM CLR 29/18 A2996 RMK AO2 SLP138 T02890178 $
KLAN 171553Z 00000KT 10SM CLR 28/20 A2997 RMK AO2 SLP143 T02780200
KLAN 171453Z VRB03KT 10SM CLR 26/20 A2998 RMK AO2 SLP147 T02610200 58004
KLAN 171353Z 00000KT 10SM CLR 23/20 A2999 RMK AO2 SLP150 T02330200
KLAN 171253Z 00000KT 10SM CLR 21/19 A2999 RMK AO2 SLP152 T02060194
KLAN 171203Z 00000KT 3SM R28L/2000VP6000FT BR CLR 17/17 A3000 RMK AO2 T01720172
KLAN 171201Z 00000KT 1 3/4SM R28L/2000VP6000FT BR CLR 17/17 A3000 RMK AO2 T01720172 $
KLAN 171153Z 00000KT 1/2SM R28L/1800VP6000FT FG CLR 17/17 A3000 RMK AO2 VIS 1/4V2 SLP154 T01720172 10206 20172 56001 $
KLAN 171139Z 00000KT 1/4SM R28L/1200VP6000FT FG CLR 17/17 A3000 RMK AO2 T01720172 $
KLAN 171130Z 00000KT 1/4SM R28L/1200V5500FT FG VV004 17/17 A3000 RMK AO2 T01720172 $
KLAN 171120Z 00000KT 3/4SM R28L/1600VP6000FT BR VV004 17/17 A3000 RMK AO2 T01720172 $
KLAN 171116Z 00000KT 1 1/4SM R28L/1800VP6000FT BR FEW004 17/17 A3000 RMK AO2 T01720172 $
KLAN 171110Z 00000KT 3/4SM R28L/P6000FT BR VV004 17/17 A3000 RMK AO2 T01720172 $
KLAN 171106Z 00000KT 1 1/4SM BR FEW004 17/17 A3000 RMK AO2 T01720167 $
KLAN 171104Z 00000KT 2SM BR FEW004 17/17 A3000 RMK AO2 T01720167 $
KLAN 171053Z 00000KT 10SM CLR 17/17 A3000 RMK AO2 SLP153 T01720167 $
KLAN 170953Z 00000KT 6SM R28L/4500VP6000FT BR CLR 18/18 A3000 RMK AO2 SLP154 T01830178 $
KLAN 170951Z 00000KT 3SM BR CLR 18/18 A3000 RMK AO2 $
KLAN 170942Z 00000KT 1 3/4SM BR CLR 18/18 A3000 RMK AO2 T01780178 $